Time;durP1;ratioP1;P1;durP2;ratioP2;P2;SDS_P1;SDS_P2;PMS_P1;PMS_P2;Temp;Humidity;BMP_temperature;BMP_pressure;BME280_temperature;BME280_humidity;BME280_pressure;Samples;Min_cycle;Max_cycle;Signal;HPM_P1;HPM_P2
2024/02/17 00:00:07;;;;;;;18.87;15.20;;;;;;;;;;635244;23;796;-78
2024/02/17 00:00:23;;;;;;;19.63;15.27;;;;;;;;;;638015;23;819;-79
2024/02/17 00:00:38;;;;;;;19.80;15.50;;;;;;;;;;638436;23;831;-78
2024/02/17 00:00:54;;;;;;;19.55;15.27;;;;;;;;;;638563;23;859;-78
2024/02/17 00:01:09;;;;;;;21.33;15.50;;;;;;;;;;638398;23;831;-78
2024/02/17 00:01:24;;;;;;;22.17;16.37;;;;;;;;;;638456;23;846;-80
2024/02/17 00:01:40;;;;;;;22.95;17.13;;;;;;;;;;634652;23;1299;-80
2024/02/17 00:01:55;;;;;;;23.17;16.90;;;;;;;;;;635085;23;835;-80
2024/02/17 00:02:10;;;;;;;26.03;17.17;;;;;;;;;;634768;23;839;-79
2024/02/17 00:02:26;;;;;;;27.45;17.55;;;;;;;;;;634934;23;1162;-79
2024/02/17 00:02:41;;;;;;;23.30;17.60;;;;;;;;;;635230;23;799;-80
2024/02/17 00:02:56;;;;;;;24.27;18.00;;;;;;;;;;635133;23;985;-80
2024/02/17 00:03:12;;;;;;;25.13;18.13;;;;;;;;;;632010;23;1201;-79
2024/02/17 00:03:27;;;;;;;23.15;17.85;;;;;;;;;;632474;23;811;-80
2024/02/17 00:03:43;;;;;;;22.97;17.97;;;;;;;;;;632037;23;1177;-80
2024/02/17 00:03:58;;;;;;;22.07;17.60;;;;;;;;;;632007;23;1272;-80
2024/02/17 00:04:13;;;;;;;22.58;17.63;;;;;;;;;;628907;23;1144;-80
2024/02/17 00:04:28;;;;;;;23.63;18.20;;;;;;;;;;628679;23;1310;-79
2024/02/17 00:04:44;;;;;;;24.03;18.80;;;;;;;;;;629044;23;1018;-79
2024/02/17 00:04:59;;;;;;;24.67;18.85;;;;;;;;;;629373;23;994;-78
2024/02/17 00:05:15;;;;;;;24.67;18.67;;;;;;;;;;631992;23;883;-79
2024/02/17 00:05:30;;;;;;;25.40;18.97;;;;;;;;;;632354;23;800;-78
2024/02/17 00:05:45;;;;;;;24.30;18.52;;;;;;;;;;634648;23;1175;-80
2024/02/17 00:06:01;;;;;;;24.03;18.47;;;;;;;;;;631983;23;981;-80
2024/02/17 00:06:16;;;;;;;25.50;18.97;;;;;;;;;;632417;23;1423;-79
2024/02/17 00:06:31;;;;;;;26.67;19.27;;;;;;;;;;631892;23;1283;-79
2024/02/17 00:06:46;;;;;;;25.03;18.63;;;;;;;;;;631959;23;1316;-79
2024/02/17 00:07:02;;;;;;;24.70;18.97;;;;;;;;;;631817;23;1025;-80
2024/02/17 00:07:17;;;;;;;26.25;19.58;;;;;;;;;;632042;23;985;-80
2024/02/17 00:07:33;;;;;;;25.57;19.00;;;;;;;;;;631984;23;894;-80
2024/02/17 00:07:48;;;;;;;25.03;18.83;;;;;;;;;;629005;23;1285;-80
2024/02/17 00:08:04;;;;;;;24.23;18.38;;;;;;;;;;629069;23;811;-80
2024/02/17 00:08:19;;;;;;;24.30;18.30;;;;;;;;;;626385;23;1371;-80
2024/02/17 00:08:34;;;;;;;23.80;18.48;;;;;;;;;;629226;23;1296;-80
2024/02/17 00:08:50;;;;;;;23.33;18.17;;;;;;;;;;631752;23;1070;-79
2024/02/17 00:09:05;;;;;;;23.93;18.37;;;;;;;;;;632113;23;1164;-79
2024/02/17 00:09:20;;;;;;;24.08;18.77;;;;;;;;;;629114;23;1343;-80
2024/02/17 00:09:36;;;;;;;24.37;18.70;;;;;;;;;;629063;23;929;-80
2024/02/17 00:09:51;;;;;;;24.90;18.90;;;;;;;;;;629021;23;1328;-80
2024/02/17 00:10:07;;;;;;;25.85;19.25;;;;;;;;;;629187;23;1036;-80
2024/02/17 00:10:22;;;;;;;25.20;18.73;;;;;;;;;;631915;23;779;-80
2024/02/17 00:10:37;;;;;;;23.75;18.20;;;;;;;;;;628973;23;1228;-79
2024/02/17 00:10:53;;;;;;;23.40;18.53;;;;;;;;;;629496;23;848;-80
2024/02/17 00:11:08;;;;;;;24.47;19.13;;;;;;;;;;632337;23;760;-80
2024/02/17 00:11:24;;;;;;;25.38;19.08;;;;;;;;;;634809;23;1959;-80
2024/02/17 00:11:39;;;;;;;26.45;18.85;;;;;;;;;;631971;23;1487;-80
2024/02/17 00:11:55;;;;;;;26.10;18.50;;;;;;;;;;632062;23;1114;-80
2024/02/17 00:12:10;;;;;;;25.33;18.77;;;;;;;;;;631731;23;1299;-79
2024/02/17 00:12:26;;;;;;;25.45;19.20;;;;;;;;;;632157;23;1144;-80
2024/02/17 00:12:41;;;;;;;25.17;19.07;;;;;;;;;;635363;23;854;-79
2024/02/17 00:12:56;;;;;;;24.73;19.23;;;;;;;;;;632020;23;1264;-80
2024/02/17 00:13:12;;;;;;;25.20;19.23;;;;;;;;;;632141;23;974;-80
2024/02/17 00:13:27;;;;;;;25.98;18.92;;;;;;;;;;631883;23;1264;-80
2024/02/17 00:13:43;;;;;;;24.90;18.47;;;;;;;;;;628885;23;1279;-79
2024/02/17 00:13:58;;;;;;;24.70;18.75;;;;;;;;;;628912;23;1281;-78
2024/02/17 00:14:13;;;;;;;26.20;19.57;;;;;;;;;;629321;23;958;-78
2024/02/17 00:14:29;;;;;;;26.27;19.57;;;;;;;;;;631758;23;1060;-79
2024/02/17 00:14:44;;;;;;;25.45;19.00;;;;;;;;;;629478;23;1417;-78
2024/02/17 00:14:59;;;;;;;25.60;19.03;;;;;;;;;;631891;23;847;-79
2024/02/17 00:15:15;;;;;;;23.97;18.50;;;;;;;;;;631830;23;1196;-78
2024/02/17 00:15:30;;;;;;;23.13;18.08;;;;;;;;;;632269;23;1212;-78
2024/02/17 00:15:46;;;;;;;24.53;18.73;;;;;;;;;;634846;23;898;-78
2024/02/17 00:16:02;;;;;;;23.50;18.08;;;;;;;;;;632100;23;1307;-79
2024/02/17 00:16:18;;;;;;;23.15;17.92;;;;;;;;;;632128;23;839;-79
2024/02/17 00:16:34;;;;;;;23.98;18.20;;;;;;;;;;632441;23;1361;-78
2024/02/17 00:16:49;;;;;;;23.88;17.88;;;;;;;;;;632156;23;831;-78
2024/02/17 00:17:05;;;;;;;23.47;17.97;;;;;;;;;;628420;23;1122;-79
2024/02/17 00:17:21;;;;;;;24.60;18.15;;;;;;;;;;630098;23;918;-79
2024/02/17 00:17:36;;;;;;;25.73;18.43;;;;;;;;;;632117;23;819;-79
2024/02/17 00:17:52;;;;;;;26.10;19.00;;;;;;;;;;628182;23;1356;-78
2024/02/17 00:18:07;;;;;;;24.83;18.33;;;;;;;;;;623070;23;1119;-78
2024/02/17 00:18:28;;;;;;;23.87;17.37;;;;;;;;;;623652;23;1197;-79
2024/02/17 00:18:43;;;;;;;25.15;18.42;;;;;;;;;;627847;23;863;-78
2024/02/17 00:18:58;;;;;;;24.03;18.27;;;;;;;;;;630768;23;942;-78
2024/02/17 00:19:14;;;;;;;23.27;17.90;;;;;;;;;;632053;23;875;-79
2024/02/17 00:19:29;;;;;;;22.90;17.73;;;;;;;;;;628794;23;1268;-78
2024/02/17 00:19:46;;;;;;;22.23;17.40;;;;;;;;;;630619;23;1185;-79
2024/02/17 00:20:02;;;;;;;22.17;17.60;;;;;;;;;;633716;23;1397;-79
2024/02/17 00:20:17;;;;;;;22.42;17.55;;;;;;;;;;633328;23;827;-79
2024/02/17 00:20:32;;;;;;;23.67;17.67;;;;;;;;;;632007;23;1431;-79
2024/02/17 00:20:48;;;;;;;23.87;17.93;;;;;;;;;;631804;23;922;-79
2024/02/17 00:21:04;;;;;;;23.17;17.92;;;;;;;;;;631926;23;1211;-79
2024/02/17 00:21:19;;;;;;;23.25;17.80;;;;;;;;;;631949;23;950;-80
2024/02/17 00:21:34;;;;;;;24.03;18.40;;;;;;;;;;632628;23;895;-79
2024/02/17 00:21:49;;;;;;;23.83;18.23;;;;;;;;;;632030;23;1153;-78
2024/02/17 00:22:05;;;;;;;21.65;17.63;;;;;;;;;;631546;23;831;-78
2024/02/17 00:22:20;;;;;;;20.97;17.60;;;;;;;;;;632052;23;1201;-80
2024/02/17 00:22:35;;;;;;;21.10;17.20;;;;;;;;;;628873;23;1264;-80
2024/02/17 00:22:51;;;;;;;22.80;17.80;;;;;;;;;;629380;23;891;-79
2024/02/17 00:23:06;;;;;;;24.38;18.50;;;;;;;;;;632263;23;902;-80
2024/02/17 00:23:22;;;;;;;22.33;17.55;;;;;;;;;;628961;23;1291;-80
2024/02/17 00:23:37;;;;;;;21.87;17.43;;;;;;;;;;629475;23;835;-80
2024/02/17 00:23:52;;;;;;;22.73;17.57;;;;;;;;;;632195;23;773;-80
2024/02/17 00:24:08;;;;;;;22.47;17.53;;;;;;;;;;632130;23;1239;-80
2024/02/17 00:24:24;;;;;;;21.85;17.40;;;;;;;;;;628927;23;1201;-79
2024/02/17 00:24:39;;;;;;;23.83;17.85;;;;;;;;;;632080;23;899;-79
2024/02/17 00:24:55;;;;;;;24.63;18.20;;;;;;;;;;632071;23;819;-80
2024/02/17 00:25:10;;;;;;;24.63;18.43;;;;;;;;;;632175;23;1346;-80
2024/02/17 00:25:25;;;;;;;25.53;18.90;;;;;;;;;;631958;23;922;-80
2024/02/17 00:25:41;;;;;;;24.27;18.43;;;;;;;;;;631870;23;792;-79
2024/02/17 00:25:56;;;;;;;22.40;17.80;;;;;;;;;;632563;23;816;-78
2024/02/17 00:26:16;;;;;;;22.20;17.60;;;;;;;;;;632247;23;1177;-79
2024/02/17 00:26:31;;;;;;;22.77;17.58;;;;;;;;;;631989;23;874;-80
2024/02/17 00:26:48;;;;;;;22.97;17.83;;;;;;;;;;632051;23;1133;-79
2024/02/17 00:27:04;;;;;;;24.75;18.40;;;;;;;;;;633078;23;1298;-78
2024/02/17 00:27:19;;;;;;;23.83;17.95;;;;;;;;;;635318;23;1308;-78
2024/02/17 00:27:35;;;;;;;22.03;17.87;;;;;;;;;;635110;23;1175;-80
2024/02/17 00:27:50;;;;;;;22.73;18.10;;;;;;;;;;635115;23;1193;-79
2024/02/17 00:28:05;;;;;;;23.83;18.10;;;;;;;;;;635136;23;1248;-80
2024/02/17 00:28:26;;;;;;;24.70;18.27;;;;;;;;;;635008;23;1164;-80
2024/02/17 00:28:41;;;;;;;24.10;18.15;;;;;;;;;;635220;23;910;-78
2024/02/17 00:28:59;;;;;;;25.70;18.33;;;;;;;;;;635127;23;1005;-79
2024/02/17 00:29:18;;;;;;;24.55;17.77;;;;;;;;;;637024;23;883;-78
2024/02/17 00:29:34;;;;;;;22.40;17.73;;;;;;;;;;632481;23;1443;-78
2024/02/17 00:29:49;;;;;;;24.05;18.63;;;;;;;;;;634660;23;1270;-79
2024/02/17 00:30:05;;;;;;;23.33;18.00;;;;;;;;;;635100;23;767;-80
2024/02/17 00:30:20;;;;;;;23.95;18.05;;;;;;;;;;634891;23;1278;-81
2024/02/17 00:30:36;;;;;;;23.35;17.77;;;;;;;;;;635046;23;859;-79
2024/02/17 00:30:51;;;;;;;21.57;17.00;;;;;;;;;;635061;23;799;-79
2024/02/17 00:31:06;;;;;;;22.87;17.67;;;;;;;;;;632070;23;1140;-79
2024/02/17 00:31:22;;;;;;;23.92;17.98;;;;;;;;;;631970;23;1921;-77
2024/02/17 00:31:37;;;;;;;23.43;17.87;;;;;;;;;;632270;23;838;-75
2024/02/17 00:31:52;;;;;;;23.73;18.10;;;;;;;;;;635016;23;811;-76
2024/02/17 00:32:08;;;;;;;24.35;18.45;;;;;;;;;;634658;23;866;-77
2024/02/17 00:32:23;;;;;;;24.57;18.73;;;;;;;;;;634962;23;799;-77
2024/02/17 00:32:38;;;;;;;24.30;18.17;;;;;;;;;;635085;23;1124;-77
2024/02/17 00:32:53;;;;;;;23.98;17.85;;;;;;;;;;635025;23;1182;-76
2024/02/17 00:33:09;;;;;;;24.07;18.00;;;;;;;;;;635040;23;922;-77
2024/02/17 00:33:24;;;;;;;24.07;17.97;;;;;;;;;;631956;23;1320;-77
2024/02/17 00:33:39;;;;;;;23.90;17.93;;;;;;;;;;632122;23;941;-76
2024/02/17 00:33:55;;;;;;;23.83;17.80;;;;;;;;;;631612;23;1150;-75
2024/02/17 00:34:11;;;;;;;23.33;17.65;;;;;;;;;;631946;23;867;-75
2024/02/17 00:34:26;;;;;;;23.07;17.83;;;;;;;;;;632178;23;859;-76
2024/02/17 00:34:42;;;;;;;22.98;17.83;;;;;;;;;;635079;23;827;-75
2024/02/17 00:34:57;;;;;;;22.07;17.43;;;;;;;;;;634663;23;1244;-75
2024/02/17 00:35:12;;;;;;;21.67;17.17;;;;;;;;;;634896;23;827;-76
2024/02/17 00:35:28;;;;;;;22.27;17.52;;;;;;;;;;634734;23;985;-76
2024/02/17 00:35:43;;;;;;;23.77;17.87;;;;;;;;;;635475;23;894;-75
2024/02/17 00:35:59;;;;;;;24.10;17.85;;;;;;;;;;637877;23;815;-75
2024/02/17 00:36:14;;;;;;;22.87;17.70;;;;;;;;;;635029;23;1249;-76
2024/02/17 00:36:30;;;;;;;22.20;17.35;;;;;;;;;;635005;23;1041;-75
2024/02/17 00:36:45;;;;;;;23.13;17.77;;;;;;;;;;635163;23;863;-75
2024/02/17 00:37:00;;;;;;;23.93;17.60;;;;;;;;;;631702;23;1170;-76
2024/02/17 00:37:16;;;;;;;23.33;17.17;;;;;;;;;;631784;23;890;-75
2024/02/17 00:37:31;;;;;;;24.40;17.97;;;;;;;;;;631811;23;926;-76
2024/02/17 00:37:46;;;;;;;24.90;18.23;;;;;;;;;;631816;23;1199;-76
2024/02/17 00:38:02;;;;;;;23.23;17.90;;;;;;;;;;631852;23;1071;-75
2024/02/17 00:38:19;;;;;;;24.20;17.97;;;;;;;;;;632033;23;871;-76
2024/02/17 00:38:34;;;;;;;25.73;18.48;;;;;;;;;;631842;23;1001;-77
2024/02/17 00:38:49;;;;;;;25.87;18.47;;;;;;;;;;629328;23;1216;-75
2024/02/17 00:39:05;;;;;;;24.83;18.40;;;;;;;;;;632060;23;803;-75
2024/02/17 00:39:20;;;;;;;24.40;18.45;;;;;;;;;;632067;23;1010;-76
2024/02/17 00:39:36;;;;;;;23.57;17.70;;;;;;;;;;629316;23;1433;-76
2024/02/17 00:39:51;;;;;;;23.60;17.67;;;;;;;;;;632108;23;788;-75
2024/02/17 00:40:07;;;;;;;23.48;17.73;;;;;;;;;;628822;23;1220;-75
2024/02/17 00:40:22;;;;;;;23.73;18.08;;;;;;;;;;628687;23;792;-75
2024/02/17 00:40:39;;;;;;;24.67;18.67;;;;;;;;;;629492;23;891;-76
2024/02/17 00:40:56;;;;;;;24.73;18.38;;;;;;;;;;632018;23;1267;-77
2024/02/17 00:41:11;;;;;;;22.92;17.55;;;;;;;;;;632160;23;906;-77
2024/02/17 00:41:26;;;;;;;24.07;18.30;;;;;;;;;;632834;23;938;-77
2024/02/17 00:41:42;;;;;;;25.60;18.75;;;;;;;;;;635107;23;1013;-76
2024/02/17 00:41:57;;;;;;;24.67;18.23;;;;;;;;;;635136;23;1027;-77
2024/02/17 00:42:13;;;;;;;25.30;18.42;;;;;;;;;;634811;23;1017;-77
2024/02/17 00:42:28;;;;;;;25.27;18.33;;;;;;;;;;634855;23;877;-78
2024/02/17 00:42:43;;;;;;;23.42;17.60;;;;;;;;;;636013;23;930;-77
2024/02/17 00:42:59;;;;;;;22.67;17.27;;;;;;;;;;638435;23;1002;-77
2024/02/17 00:43:15;;;;;;;25.03;18.03;;;;;;;;;;638556;23;839;-77
2024/02/17 00:43:31;;;;;;;26.30;18.33;;;;;;;;;;637981;23;870;-76
2024/02/17 00:43:48;;;;;;;24.73;18.60;;;;;;;;;;638298;23;878;-76
2024/02/17 00:44:04;;;;;;;26.02;18.63;;;;;;;;;;638261;23;985;-71
2024/02/17 00:44:19;;;;;;;25.83;18.33;;;;;;;;;;638224;23;811;-71
2024/02/17 00:44:35;;;;;;;25.10;18.67;;;;;;;;;;638258;23;863;-71
2024/02/17 00:44:50;;;;;;;24.93;19.00;;;;;;;;;;635029;23;931;-71
2024/02/17 00:45:06;;;;;;;25.67;18.92;;;;;;;;;;634974;23;764;-70
2024/02/17 00:45:21;;;;;;;23.50;17.57;;;;;;;;;;634906;23;823;-70
2024/02/17 00:45:36;;;;;;;21.77;17.23;;;;;;;;;;634912;23;1032;-70
2024/02/17 00:45:52;;;;;;;23.70;17.93;;;;;;;;;;631999;23;970;-71
2024/02/17 00:46:07;;;;;;;24.23;17.60;;;;;;;;;;632160;23;914;-71
2024/02/17 00:46:22;;;;;;;24.58;18.10;;;;;;;;;;631933;23;1377;-70
2024/02/17 00:46:38;;;;;;;25.13;18.63;;;;;;;;;;632067;23;879;-70
2024/02/17 00:46:53;;;;;;;26.00;18.87;;;;;;;;;;632062;23;1111;-72
2024/02/17 00:47:08;;;;;;;25.13;18.87;;;;;;;;;;631820;23;991;-72
2024/02/17 00:47:23;;;;;;;24.85;18.70;;;;;;;;;;631980;23;990;-72
2024/02/17 00:47:39;;;;;;;25.97;18.80;;;;;;;;;;632301;23;807;-72
2024/02/17 00:47:54;;;;;;;25.53;18.70;;;;;;;;;;635206;23;891;-72
2024/02/17 00:48:09;;;;;;;26.27;18.83;;;;;;;;;;635607;23;942;-72
2024/02/17 00:48:26;;;;;;;26.70;18.90;;;;;;;;;;638470;23;902;-72
2024/02/17 00:48:41;;;;;;;25.98;19.42;;;;;;;;;;638625;23;898;-72
2024/02/17 00:48:56;;;;;;;26.65;19.45;;;;;;;;;;635257;23;1193;-72
2024/02/17 00:49:11;;;;;;;26.87;18.87;;;;;;;;;;635532;23;842;-72
2024/02/17 00:49:27;;;;;;;27.33;19.30;;;;;;;;;;635236;23;836;-72
2024/02/17 00:49:42;;;;;;;30.40;19.63;;;;;;;;;;635054;23;800;-72
2024/02/17 00:49:58;;;;;;;29.77;19.70;;;;;;;;;;635347;23;854;-73
2024/02/17 00:50:13;;;;;;;26.03;19.40;;;;;;;;;;635588;23;856;-73
2024/02/17 00:50:29;;;;;;;25.67;18.63;;;;;;;;;;632100;23;1270;-72
2024/02/17 00:50:44;;;;;;;25.40;18.20;;;;;;;;;;632649;23;910;-73
2024/02/17 00:51:00;;;;;;;25.53;18.90;;;;;;;;;;635377;23;784;-72
2024/02/17 00:51:15;;;;;;;26.40;19.63;;;;;;;;;;635410;23;1959;-73
2024/02/17 00:51:31;;;;;;;27.03;19.70;;;;;;;;;;635096;23;843;-73
2024/02/17 00:51:46;;;;;;;27.70;19.53;;;;;;;;;;635243;23;899;-72
2024/02/17 00:52:01;;;;;;;28.00;19.70;;;;;;;;;;631945;23;1271;-72
2024/02/17 00:52:16;;;;;;;27.80;19.87;;;;;;;;;;629572;23;819;-73
2024/02/17 00:52:32;;;;;;;27.63;20.03;;;;;;;;;;632057;23;1267;-72
2024/02/17 00:52:49;;;;;;;27.25;19.90;;;;;;;;;;629283;23;1155;-72
2024/02/17 00:53:04;;;;;;;27.13;19.30;;;;;;;;;;629371;23;910;-72
2024/02/17 00:53:20;;;;;;;29.00;19.73;;;;;;;;;;626439;23;1268;-72
2024/02/17 00:53:38;;;;;;;29.90;20.35;;;;;;;;;;623054;23;1290;-72
2024/02/17 00:53:53;;;;;;;30.05;20.50;;;;;;;;;;626053;23;1464;-73
2024/02/17 00:54:08;;;;;;;28.58;19.95;;;;;;;;;;627542;23;871;-72
2024/02/17 00:54:23;;;;;;;28.00;19.60;;;;;;;;;;629196;23;811;-72
2024/02/17 00:54:39;;;;;;;28.13;20.07;;;;;;;;;;627254;23;1129;-72
2024/02/17 00:54:54;;;;;;;28.55;20.30;;;;;;;;;;629233;23;922;-72
2024/02/17 00:55:10;;;;;;;28.70;20.30;;;;;;;;;;629299;23;1122;-73
2024/02/17 00:55:26;;;;;;;27.63;20.30;;;;;;;;;;629872;23;1235;-73
2024/02/17 00:55:41;;;;;;;29.13;20.58;;;;;;;;;;632566;23;827;-73
2024/02/17 00:55:56;;;;;;;30.57;21.13;;;;;;;;;;635162;23;985;-73
2024/02/17 00:56:12;;;;;;;29.93;21.67;;;;;;;;;;635370;23;1000;-72
2024/02/17 00:56:28;;;;;;;29.50;21.30;;;;;;;;;;632773;23;1469;-72
2024/02/17 00:56:43;;;;;;;29.73;21.35;;;;;;;;;;632181;23;1054;-72
2024/02/17 00:56:58;;;;;;;28.93;21.20;;;;;;;;;;629090;23;1391;-73
2024/02/17 00:57:14;;;;;;;29.57;20.97;;;;;;;;;;628802;23;946;-73
2024/02/17 00:57:29;;;;;;;31.07;21.40;;;;;;;;;;625974;23;1232;-72
2024/02/17 00:57:44;;;;;;;30.20;21.63;;;;;;;;;;626353;23;1241;-72
2024/02/17 00:58:01;;;;;;;30.70;22.03;;;;;;;;;;626087;23;789;-73
2024/02/17 00:58:16;;;;;;;30.45;21.42;;;;;;;;;;626709;23;839;-73
2024/02/17 00:58:31;;;;;;;29.07;21.03;;;;;;;;;;629689;23;1138;-72
2024/02/17 00:58:47;;;;;;;29.60;21.03;;;;;;;;;;632350;23;816;-72
2024/02/17 00:59:02;;;;;;;29.92;20.92;;;;;;;;;;632346;23;942;-73
2024/02/17 00:59:17;;;;;;;31.30;21.73;;;;;;;;;;632904;23;1554;-73
2024/02/17 00:59:33;;;;;;;31.93;21.90;;;;;;;;;;634867;23;795;-72
2024/02/17 00:59:48;;;;;;;31.10;21.13;;;;;;;;;;629234;23;1438;-72
2024/02/17 01:00:04;;;;;;;31.80;21.37;;;;;;;;;;629092;23;1124;-72
2024/02/17 01:00:20;;;;;;;31.70;21.77;;;;;;;;;;629527;23;1179;-72
2024/02/17 01:00:36;;;;;;;30.90;21.70;;;;;;;;;;629125;23;1232;-72
2024/02/17 01:00:51;;;;;;;30.75;21.77;;;;;;;;;;626122;23;1327;-72
2024/02/17 01:01:09;;;;;;;30.23;20.98;;;;;;;;;;627136;23;847;-73
2024/02/17 01:01:26;;;;;;;30.05;20.88;;;;;;;;;;629221;23;890;-72
2024/02/17 01:01:42;;;;;;;31.55;21.60;;;;;;;;;;627259;23;1358;-72
2024/02/17 01:02:00;;;;;;;29.70;20.92;;;;;;;;;;629228;23;870;-72
2024/02/17 01:02:15;;;;;;;28.15;20.40;;;;;;;;;;625951;23;1335;-72
2024/02/17 01:02:32;;;;;;;28.05;20.52;;;;;;;;;;627596;23;1231;-73
2024/02/17 01:02:48;;;;;;;28.40;20.92;;;;;;;;;;631118;23;886;-72
2024/02/17 01:03:04;;;;;;;28.35;20.88;;;;;;;;;;632273;23;863;-73
2024/02/17 01:03:19;;;;;;;26.77;19.90;;;;;;;;;;632127;23;1276;-72
2024/02/17 01:03:35;;;;;;;28.70;20.87;;;;;;;;;;629045;23;1052;-72
2024/02/17 01:03:50;;;;;;;30.73;21.60;;;;;;;;;;629422;23;866;-72
2024/02/17 01:04:05;;;;;;;30.17;21.47;;;;;;;;;;626115;23;1185;-73
2024/02/17 01:04:20;;;;;;;31.27;22.00;;;;;;;;;;626943;23;828;-72
2024/02/17 01:04:36;;;;;;;33.23;22.67;;;;;;;;;;628929;23;1010;-72
2024/02/17 01:04:51;;;;;;;31.27;21.75;;;;;;;;;;626284;23;1260;-72
2024/02/17 01:05:07;;;;;;;29.57;21.07;;;;;;;;;;626373;23;923;-72
2024/02/17 01:05:22;;;;;;;29.77;21.35;;;;;;;;;;626437;23;1391;-72
2024/02/17 01:05:38;;;;;;;30.53;21.23;;;;;;;;;;629217;23;986;-72
2024/02/17 01:05:54;;;;;;;30.85;21.48;;;;;;;;;;629672;23;918;-72
2024/02/17 01:06:09;;;;;;;30.30;22.00;;;;;;;;;;632288;23;791;-72
2024/02/17 01:06:25;;;;;;;29.77;21.88;;;;;;;;;;629024;23;1414;-73
2024/02/17 01:06:40;;;;;;;29.00;21.33;;;;;;;;;;626753;23;1363;-72
2024/02/17 01:06:55;;;;;;;29.57;21.63;;;;;;;;;;629418;23;868;-72
2024/02/17 01:07:11;;;;;;;30.17;21.93;;;;;;;;;;629387;23;919;-72
2024/02/17 01:07:26;;;;;;;30.95;21.92;;;;;;;;;;632134;23;1262;-72
2024/02/17 01:07:41;;;;;;;30.87;21.63;;;;;;;;;;632400;23;831;-72
2024/02/17 01:07:57;;;;;;;27.73;20.23;;;;;;;;;;632407;23;819;-72
2024/02/17 01:08:12;;;;;;;26.50;19.73;;;;;;;;;;632580;23;1010;-72
2024/02/17 01:08:27;;;;;;;28.33;20.33;;;;;;;;;;635078;23;1357;-72
2024/02/17 01:08:42;;;;;;;29.40;21.20;;;;;;;;;;635286;23;1245;-72
2024/02/17 01:08:58;;;;;;;29.48;21.58;;;;;;;;;;635472;23;1019;-72
2024/02/17 01:09:15;;;;;;;29.43;21.13;;;;;;;;;;635411;23;831;-72
2024/02/17 01:09:30;;;;;;;27.52;20.27;;;;;;;;;;635005;23;917;-72
2024/02/17 01:09:45;;;;;;;28.67;20.80;;;;;;;;;;635352;23;903;-72
2024/02/17 01:10:01;;;;;;;31.35;22.02;;;;;;;;;;635215;23;799;-73
2024/02/17 01:10:17;;;;;;;31.25;22.13;;;;;;;;;;632945;23;1231;-72
2024/02/17 01:10:32;;;;;;;30.67;21.80;;;;;;;;;;631938;23;1205;-72
2024/02/17 01:10:48;;;;;;;31.27;21.73;;;;;;;;;;632222;23;823;-72
2024/02/17 01:11:03;;;;;;;31.02;21.65;;;;;;;;;;632136;23;1349;-72
2024/02/17 01:11:19;;;;;;;28.98;21.00;;;;;;;;;;629196;23;1976;-72
2024/02/17 01:11:35;;;;;;;29.13;20.70;;;;;;;;;;629077;23;788;-72
2024/02/17 01:11:50;;;;;;;28.58;20.48;;;;;;;;;;629093;23;1120;-73
2024/02/17 01:12:06;;;;;;;26.80;19.87;;;;;;;;;;629262;23;1332;-73
2024/02/17 01:12:21;;;;;;;28.33;20.27;;;;;;;;;;632249;23;990;-72
2024/02/17 01:12:36;;;;;;;29.13;20.70;;;;;;;;;;632130;23;974;-73
2024/02/17 01:12:52;;;;;;;28.90;20.65;;;;;;;;;;629670;23;1316;-72
2024/02/17 01:13:09;;;;;;;28.93;20.73;;;;;;;;;;632906;23;974;-72
2024/02/17 01:13:24;;;;;;;27.90;20.58;;;;;;;;;;631933;23;1349;-72
2024/02/17 01:13:41;;;;;;;27.47;20.17;;;;;;;;;;631791;23;1190;-73
2024/02/17 01:13:56;;;;;;;28.15;19.63;;;;;;;;;;631882;23;1255;-72
2024/02/17 01:14:11;;;;;;;28.33;19.23;;;;;;;;;;629194;23;1151;-72
2024/02/17 01:14:26;;;;;;;27.23;19.20;;;;;;;;;;628897;23;891;-73
2024/02/17 01:14:42;;;;;;;28.55;19.42;;;;;;;;;;629852;23;1284;-72
2024/02/17 01:14:57;;;;;;;28.57;19.43;;;;;;;;;;632010;23;1052;-72
2024/02/17 01:15:12;;;;;;;27.80;19.63;;;;;;;;;;629740;23;1062;-72
2024/02/17 01:15:28;;;;;;;28.23;20.10;;;;;;;;;;628882;23;1180;-73
2024/02/17 01:15:43;;;;;;;27.63;19.50;;;;;;;;;;626062;23;1135;-73
2024/02/17 01:15:58;;;;;;;26.57;18.97;;;;;;;;;;626312;23;1276;-72
2024/02/17 01:16:14;;;;;;;25.80;19.15;;;;;;;;;;626176;23;1189;-72
2024/02/17 01:16:29;;;;;;;26.87;19.37;;;;;;;;;;626147;23;784;-72
2024/02/17 01:16:44;;;;;;;27.63;19.80;;;;;;;;;;626300;23;808;-72
2024/02/17 01:17:00;;;;;;;27.13;19.98;;;;;;;;;;626377;23;832;-73
2024/02/17 01:17:15;;;;;;;27.17;19.80;;;;;;;;;;629258;23;942;-72
2024/02/17 01:17:30;;;;;;;27.30;19.70;;;;;;;;;;629286;23;1195;-72
2024/02/17 01:17:46;;;;;;;27.17;19.40;;;;;;;;;;629211;23;1254;-72
2024/02/17 01:18:01;;;;;;;25.77;18.60;;;;;;;;;;629317;23;935;-72
2024/02/17 01:18:16;;;;;;;25.17;18.07;;;;;;;;;;629424;23;1205;-72
2024/02/17 01:18:31;;;;;;;25.05;17.70;;;;;;;;;;629043;23;832;-72
2024/02/17 01:18:47;;;;;;;24.27;17.17;;;;;;;;;;629236;23;962;-72
2024/02/17 01:19:02;;;;;;;24.23;17.23;;;;;;;;;;626066;23;1283;-72
2024/02/17 01:19:17;;;;;;;24.35;17.77;;;;;;;;;;626391;23;1076;-72
2024/02/17 01:19:33;;;;;;;26.40;18.27;;;;;;;;;;629191;23;819;-72
2024/02/17 01:19:48;;;;;;;25.67;18.17;;;;;;;;;;629070;23;800;-72
2024/02/17 01:20:04;;;;;;;23.00;17.35;;;;;;;;;;629465;23;836;-72
2024/02/17 01:20:20;;;;;;;21.97;16.20;;;;;;;;;;632266;23;1026;-72
2024/02/17 01:20:35;;;;;;;22.15;15.98;;;;;;;;;;632031;23;804;-72
2024/02/17 01:20:51;;;;;;;22.67;16.50;;;;;;;;;;629538;23;1251;-72
2024/02/17 01:21:06;;;;;;;22.15;16.35;;;;;;;;;;629723;23;1349;-72
2024/02/17 01:21:22;;;;;;;22.33;15.80;;;;;;;;;;629233;23;1256;-72
2024/02/17 01:21:37;;;;;;;22.33;15.40;;;;;;;;;;629139;23;1232;-73
2024/02/17 01:21:52;;;;;;;22.48;15.98;;;;;;;;;;629058;23;1169;-72
2024/02/17 01:22:08;;;;;;;22.83;16.80;;;;;;;;;;625959;23;1270;-72
2024/02/17 01:22:24;;;;;;;23.40;16.67;;;;;;;;;;626094;23;1150;-72
2024/02/17 01:22:40;;;;;;;21.85;15.73;;;;;;;;;;626293;23;851;-72
2024/02/17 01:22:55;;;;;;;20.83;15.30;;;;;;;;;;626812;23;922;-72
2024/02/17 01:23:10;;;;;;;21.73;15.77;;;;;;;;;;629400;23;788;-72
2024/02/17 01:23:26;;;;;;;21.87;15.83;;;;;;;;;;629114;23;1067;-72
2024/02/17 01:23:41;;;;;;;21.13;15.87;;;;;;;;;;629948;23;886;-72
2024/02/17 01:23:58;;;;;;;21.17;15.57;;;;;;;;;;632666;23;799;-72
2024/02/17 01:24:13;;;;;;;22.05;15.40;;;;;;;;;;636279;23;851;-72
2024/02/17 01:24:28;;;;;;;22.57;15.93;;;;;;;;;;634938;23;1135;-72
2024/02/17 01:24:43;;;;;;;21.98;15.75;;;;;;;;;;635055;23;1009;-73
2024/02/17 01:24:59;;;;;;;21.43;15.20;;;;;;;;;;635072;23;807;-72
2024/02/17 01:25:15;;;;;;;21.07;15.13;;;;;;;;;;635230;23;934;-72
2024/02/17 01:25:30;;;;;;;21.98;15.27;;;;;;;;;;635016;23;859;-72
2024/02/17 01:25:46;;;;;;;22.23;15.73;;;;;;;;;;631845;23;1061;-72
2024/02/17 01:26:01;;;;;;;21.47;16.03;;;;;;;;;;632154;23;1163;-72
2024/02/17 01:26:16;;;;;;;20.15;15.60;;;;;;;;;;632092;23;903;-72
2024/02/17 01:26:32;;;;;;;20.47;15.20;;;;;;;;;;632126;23;919;-72
2024/02/17 01:26:47;;;;;;;21.20;14.90;;;;;;;;;;629037;23;1326;-72
2024/02/17 01:27:06;;;;;;;19.85;14.75;;;;;;;;;;625927;23;1232;-72
2024/02/17 01:27:21;;;;;;;20.35;15.18;;;;;;;;;;626254;23;827;-72
2024/02/17 01:27:37;;;;;;;21.43;15.43;;;;;;;;;;627185;23;828;-72
2024/02/17 01:27:52;;;;;;;20.30;15.50;;;;;;;;;;630235;23;1471;-72
2024/02/17 01:28:08;;;;;;;20.73;16.05;;;;;;;;;;632109;23;977;-72
2024/02/17 01:28:23;;;;;;;21.60;16.03;;;;;;;;;;632136;23;970;-72
2024/02/17 01:28:38;;;;;;;22.25;15.38;;;;;;;;;;633434;23;803;-72
2024/02/17 01:28:54;;;;;;;21.77;15.13;;;;;;;;;;636255;23;847;-72
2024/02/17 01:29:09;;;;;;;19.70;14.63;;;;;;;;;;635036;23;1334;-72
2024/02/17 01:29:24;;;;;;;19.35;14.60;;;;;;;;;;634968;23;1280;-72
2024/02/17 01:29:40;;;;;;;19.90;14.87;;;;;;;;;;632149;23;1168;-72
2024/02/17 01:29:55;;;;;;;20.53;14.80;;;;;;;;;;632288;23;915;-72
2024/02/17 01:30:11;;;;;;;20.05;14.57;;;;;;;;;;632337;23;835;-72
2024/02/17 01:30:26;;;;;;;20.40;15.03;;;;;;;;;;631910;23;907;-72
2024/02/17 01:30:41;;;;;;;21.48;15.13;;;;;;;;;;629222;23;1181;-72
2024/02/17 01:30:56;;;;;;;21.43;15.37;;;;;;;;;;629477;23;990;-72
2024/02/17 01:31:12;;;;;;;21.37;15.40;;;;;;;;;;632338;23;946;-72
2024/02/17 01:31:28;;;;;;;20.87;15.23;;;;;;;;;;632130;23;1944;-73
2024/02/17 01:31:43;;;;;;;20.23;15.18;;;;;;;;;;635215;23;875;-72
2024/02/17 01:31:59;;;;;;;19.60;15.13;;;;;;;;;;635346;23;1003;-72
2024/02/17 01:32:14;;;;;;;19.40;14.97;;;;;;;;;;634814;23;713;-73
2024/02/17 01:32:29;;;;;;;19.08;14.50;;;;;;;;;;632276;23;1176;-72
2024/02/17 01:32:45;;;;;;;20.90;14.80;;;;;;;;;;635237;23;1168;-72
2024/02/17 01:33:00;;;;;;;20.75;14.93;;;;;;;;;;635435;23;859;-72
2024/02/17 01:33:16;;;;;;;19.23;14.60;;;;;;;;;;632111;23;1233;-72
2024/02/17 01:33:31;;;;;;;20.10;15.13;;;;;;;;;;631887;23;1333;-72
2024/02/17 01:33:50;;;;;;;20.60;15.35;;;;;;;;;;632174;23;828;-73
2024/02/17 01:34:06;;;;;;;20.45;15.23;;;;;;;;;;628922;23;1355;-73